Time;durP1;ratioP1;P1;durP2;ratioP2;P2;SDS_P1;SDS_P2;PMS_P1;PMS_P2;Temp;Humidity;BMP_temperature;BMP_pressure;BME280_temperature;BME280_humidity;BME280_pressure;Samples;Min_cycle;Max_cycle;Signal;HPM_P1;HPM_P2
2022/06/01 00:00:13;;;;;;;26.95;21.42;;;;;;;13.70;58.11;101364.47;5147935;28;20419;-42
2022/06/01 00:02:46;;;;;;;31.08;23.10;;;;;;;13.88;58.20;101376.84;5149943;28;20428;-43
2022/06/01 00:05:19;;;;;;;25.75;21.55;;;;;;;13.83;58.21;101372.81;5157613;28;20937;-42
2022/06/01 00:07:52;;;;;;;28.35;22.20;;;;;;;13.88;58.03;101377.69;5151450;28;20416;-43
2022/06/01 00:10:26;;;;;;;31.52;21.98;;;;;;;13.89;58.01;101359.91;5150710;28;20430;-43
2022/06/01 00:12:58;;;;;;;25.77;20.98;;;;;;;13.91;58.28;101365.91;5153339;28;20407;-43
2022/06/01 00:15:31;;;;;;;24.63;19.55;;;;;;;14.04;58.20;101374.25;5149302;28;20501;-43
2022/06/01 00:18:04;;;;;;;24.27;18.65;;;;;;;14.07;58.27;101381.91;5135829;28;20551;-46
2022/06/01 00:20:37;;;;;;;20.13;13.85;;;;;;;14.05;58.35;101378.56;5152419;28;20434;-43
2022/06/01 00:23:10;;;;;;;14.85;12.20;;;;;;;14.04;58.47;101383.06;5151447;28;20424;-44
2022/06/01 00:25:44;;;;;;;15.82;13.63;;;;;;;14.04;58.66;101377.75;5148827;28;20787;-44
2022/06/01 00:28:17;;;;;;;22.85;14.85;;;;;;;14.05;58.57;101378.56;5152743;28;20473;-45
2022/06/01 00:30:49;;;;;;;18.42;15.50;;;;;;;14.05;58.74;101375.91;5150755;28;20432;-44
2022/06/01 00:33:21;;;;;;;21.98;15.18;;;;;;;13.94;58.68;101358.44;5149675;28;21880;-44
2022/06/01 00:35:54;;;;;;;19.77;14.93;;;;;;;14.00;58.62;101359.66;5147958;28;20773;-45
2022/06/01 00:38:26;;;;;;;16.35;12.38;;;;;;;13.90;58.72;101348.28;5153379;28;20413;-44
2022/06/01 00:41:03;;;;;;;16.65;12.65;;;;;;;14.06;58.79;101369.63;5149384;28;20422;-43
2022/06/01 00:43:44;;;;;;;14.60;11.05;;;;;;;13.69;58.65;101330.09;5147753;28;20449;-45
2022/06/01 00:46:16;;;;;;;14.60;10.57;;;;;;;13.93;58.81;101350.63;5147308;28;20426;-41
2022/06/01 00:48:54;;;;;;;13.63;11.02;;;;;;;14.10;58.79;101375.44;5150504;28;20991;-43
2022/06/01 00:51:29;;;;;;;13.30;10.15;;;;;;;14.08;58.99;101373.75;5149095;28;20442;-44
2022/06/01 00:54:02;;;;;;;15.27;10.70;;;;;;;14.00;59.16;101359.66;5134791;28;20801;-49
2022/06/01 00:56:40;;;;;;;14.07;9.50;;;;;;;14.06;59.13;101374.94;5137137;28;21634;-45
2022/06/01 00:59:18;;;;;;;14.07;9.90;;;;;;;14.05;59.22;101373.25;5149243;28;20419;-46
2022/06/01 01:01:55;;;;;;;15.50;10.88;;;;;;;14.08;59.19;101375.59;5147519;28;20426;-43
2022/06/01 01:04:28;;;;;;;13.57;9.80;;;;;;;14.07;59.11;101373.94;5140249;28;20417;-46
2022/06/01 01:07:06;;;;;;;15.05;9.15;;;;;;;14.08;59.27;101378.25;5147878;28;25096;-42
2022/06/01 01:09:39;;;;;;;14.45;9.75;;;;;;;14.06;59.12;101374.94;5149539;28;20538;-45
2022/06/01 01:12:13;;;;;;;15.40;9.55;;;;;;;14.05;59.25;101378.56;5154883;28;20782;-44
2022/06/01 01:14:46;;;;;;;11.30;7.63;;;;;;;14.03;59.31;101378.75;5147914;28;20513;-44
2022/06/01 01:17:20;;;;;;;10.27;6.90;;;;;;;13.93;59.40;101361.25;5147113;28;20424;-44
2022/06/01 01:19:53;;;;;;;10.00;7.53;;;;;;;13.97;59.41;101373.25;5147129;28;22127;-45
2022/06/01 01:22:45;;;;;;;12.55;7.38;;;;;;;13.93;59.49;101363.91;5121377;28;20426;-44
2022/06/01 01:25:28;;;;;;;13.10;7.68;;;;;;;13.94;59.38;101362.94;5144301;28;20609;-47
2022/06/01 01:28:06;;;;;;;11.85;7.55;;;;;;;13.87;59.52;101356.56;5145876;28;20418;-44
2022/06/01 01:31:01;;;;;;;11.63;7.93;;;;;;;13.84;59.46;101355.91;5146146;28;20507;-46
2022/06/01 01:33:34;;;;;;;12.65;7.10;;;;;;;13.81;59.65;101352.72;5145106;28;20958;-46
2022/06/01 01:36:14;;;;;;;9.98;6.43;;;;;;;13.83;59.64;101359.53;5139076;28;20467;-46
2022/06/01 01:38:53;;;;;;;11.88;6.72;;;;;;;13.81;59.72;101353.59;5152395;28;20435;-46
2022/06/01 01:41:32;;;;;;;12.07;6.22;;;;;;;13.82;59.65;101357.88;5147015;28;20591;-44
2022/06/01 01:44:11;;;;;;;8.85;6.75;;;;;;;13.79;59.73;101358.22;5145976;28;20958;-47
2022/06/01 01:46:47;;;;;;;13.18;8.45;;;;;;;13.82;59.79;101357.06;5149383;28;20922;-46
2022/06/01 01:49:25;;;;;;;14.98;9.90;;;;;;;13.80;59.74;101354.56;5148303;28;20457;-44
2022/06/01 01:52:02;;;;;;;13.68;11.02;;;;;;;13.75;59.90;101340.94;5152261;28;20592;-46
2022/06/01 01:54:47;;;;;;;17.05;11.50;;;;;;;13.72;60.02;101340.41;5149948;28;20429;-45
2022/06/01 01:57:34;;;;;;;16.85;12.13;;;;;;;13.76;59.91;101347.06;5146789;28;20425;-44
2022/06/01 02:00:15;;;;;;;16.08;11.90;;;;;;;13.73;59.94;101347.41;5148760;28;20516;-44
2022/06/01 02:02:57;;;;;;;14.98;11.75;;;;;;;13.70;60.12;101348.53;5147407;28;20509;-46
2022/06/01 02:08:31;;;;;;;18.25;12.88;;;;;;;13.55;60.15;101326.22;5145926;28;20407;-45
2022/06/01 02:14:06;;;;;;;15.20;12.30;;;;;;;13.54;60.16;101337.84;5147356;28;20402;-47
2022/06/01 02:16:42;;;;;;;19.60;14.20;;;;;;;13.47;60.12;101336.78;5151946;28;20495;-45
2022/06/01 02:19:20;;;;;;;19.33;14.95;;;;;;;13.44;60.13;101343.25;5148810;28;20442;-43
2022/06/01 02:21:54;;;;;;;26.40;17.25;;;;;;;13.12;60.19;101285.47;5145584;28;20447;-44
2022/06/01 02:24:27;;;;;;;20.90;16.58;;;;;;;13.25;60.31;101323.03;5145682;28;20406;-47
2022/06/01 02:27:00;;;;;;;21.90;16.15;;;;;;;13.25;60.64;101328.34;5151021;28;20405;-45
2022/06/01 02:29:39;;;;;;;22.03;17.43;;;;;;;13.18;60.34;101332.56;5150809;28;20489;-47
2022/06/01 02:32:12;;;;;;;22.38;18.15;;;;;;;13.12;60.47;101325.25;5144785;28;20498;-44
2022/06/01 02:34:47;;;;;;;25.90;19.42;;;;;;;13.00;60.48;101313.22;5151122;28;20476;-48
2022/06/01 02:37:21;;;;;;;29.03;21.77;;;;;;;13.02;60.58;101327.16;5150193;28;20563;-44
2022/06/01 02:39:56;;;;;;;34.90;27.30;;;;;;;12.98;60.54;101326.63;5147204;28;20632;-45
2022/06/01 02:42:29;;;;;;;34.15;28.10;;;;;;;12.93;60.58;101329.72;5149704;28;20457;-44
2022/06/01 02:45:07;;;;;;;42.45;31.70;;;;;;;12.88;60.65;101326.72;5148432;28;20429;-43
2022/06/01 02:47:42;;;;;;;46.88;33.88;;;;;;;12.82;60.93;101335.28;5145060;28;20837;-43
2022/06/01 02:50:19;;;;;;;45.03;33.78;;;;;;;12.43;61.06;101290.53;5147489;28;20500;-44
2022/06/01 02:52:52;;;;;;;46.80;34.80;;;;;;;12.73;60.92;101322.94;5147348;28;20504;-42
2022/06/01 02:55:29;;;;;;;47.70;33.35;;;;;;;12.69;61.11;101332.16;5134570;28;20566;-43
2022/06/01 02:58:02;;;;;;;42.97;32.17;;;;;;;12.65;61.25;101328.16;5145557;28;20438;-44
2022/06/01 03:00:40;;;;;;;41.40;30.70;;;;;;;12.60;61.10;101333.91;5149049;28;20471;-43
2022/06/01 03:03:13;;;;;;;42.78;30.65;;;;;;;12.59;61.41;101326.13;5146613;28;20762;-43
2022/06/01 03:05:45;;;;;;;33.92;27.00;;;;;;;12.54;61.28;101325.72;5146382;28;20932;-44
2022/06/01 03:08:18;;;;;;;31.45;25.92;;;;;;;12.44;61.48;101321.31;5146384;28;20644;-43
2022/06/01 03:10:50;;;;;;;30.45;24.67;;;;;;;12.48;61.42;101334.28;5148649;28;20418;-43
2022/06/01 03:13:24;;;;;;;31.50;23.25;;;;;;;12.39;61.49;101330.72;5146431;28;20430;-44
2022/06/01 03:15:58;;;;;;;29.23;22.83;;;;;;;12.37;61.50;101333.50;5148082;28;20406;-43
2022/06/01 03:18:31;;;;;;;27.30;22.77;;;;;;;12.05;61.67;101301.38;5152719;28;20839;-43
2022/06/01 03:21:03;;;;;;;28.42;21.98;;;;;;;12.31;61.74;101334.09;5150569;28;20458;-44
2022/06/01 03:23:38;;;;;;;27.40;21.10;;;;;;;12.28;61.81;101329.09;5149595;28;20427;-43
2022/06/01 03:26:12;;;;;;;25.98;20.98;;;;;;;12.22;61.90;101329.69;5151400;28;20417;-42
2022/06/01 03:28:47;;;;;;;26.00;20.67;;;;;;;12.26;61.71;101335.53;5150199;28;20844;-44
2022/06/01 03:31:21;;;;;;;24.23;20.25;;;;;;;12.23;61.77;101326.06;5149008;28;20438;-44
2022/06/01 03:33:53;;;;;;;25.23;20.00;;;;;;;12.25;61.88;101334.69;5152844;28;20753;-44
2022/06/01 03:36:26;;;;;;;24.73;19.10;;;;;;;12.20;61.95;101331.66;5159336;28;20410;-44
2022/06/01 03:38:58;;;;;;;23.33;18.63;;;;;;;12.22;62.04;101330.53;5155531;28;20580;-45
2022/06/01 03:41:34;;;;;;;23.20;18.83;;;;;;;12.14;61.88;101319.00;5142614;28;20878;-42
2022/06/01 03:47:03;;;;;;;24.17;17.67;;;;;;;12.19;61.89;101330.00;5150370;28;20441;-46
2022/06/01 03:49:37;;;;;;;21.42;16.40;;;;;;;12.19;62.12;101335.28;5146549;28;20438;-43
2022/06/01 03:52:09;;;;;;;21.63;15.38;;;;;;;12.14;62.27;101326.94;5152749;28;20538;-47
2022/06/01 03:54:42;;;;;;;20.77;16.08;;;;;;;12.18;62.17;101334.47;5160839;28;20444;-44
2022/06/01 03:57:14;;;;;;;19.95;14.68;;;;;;;12.20;62.16;101336.94;5153991;28;20508;-44
2022/06/01 03:59:47;;;;;;;16.90;13.10;;;;;;;12.20;62.16;101342.25;5151193;28;20429;-43
2022/06/01 04:02:21;;;;;;;15.18;12.85;;;;;;;12.19;62.36;101341.41;5150742;28;20596;-45
2022/06/01 04:04:54;;;;;;;16.08;11.98;;;;;;;11.88;62.37;101292.41;5151660;28;20822;-43
2022/06/01 04:07:26;;;;;;;13.82;11.95;;;;;;;12.23;62.36;101349.91;5149581;28;20496;-44
2022/06/01 04:10:01;;;;;;;13.68;11.40;;;;;;;12.22;62.32;101350.88;5150132;28;20590;-45
2022/06/01 04:12:33;;;;;;;12.95;10.98;;;;;;;12.22;62.42;101345.59;5149395;28;20473;-45
2022/06/01 04:15:09;;;;;;;12.02;9.48;;;;;;;12.23;62.41;101341.94;5149629;28;20421;-44
2022/06/01 04:17:43;;;;;;;9.85;8.80;;;;;;;12.14;62.53;101332.25;5149352;28;20422;-44
2022/06/01 04:20:15;;;;;;;10.20;8.30;;;;;;;12.25;62.52;101345.28;5149658;28;21602;-45
2022/06/01 04:22:48;;;;;;;9.75;8.55;;;;;;;12.27;62.67;101347.81;5149808;28;20811;-44
2022/06/01 04:25:20;;;;;;;9.73;8.73;;;;;;;12.34;62.53;101343.56;5150529;28;20447;-43
2022/06/01 04:27:53;;;;;;;8.57;7.07;;;;;;;12.37;62.55;101349.41;5146552;28;20509;-46
2022/06/01 04:30:25;;;;;;;11.20;7.90;;;;;;;12.49;62.49;101346.56;5152486;28;20495;-43
2022/06/01 04:32:59;;;;;;;8.90;6.95;;;;;;;12.53;62.54;101345.25;5151195;28;20496;-44
2022/06/01 04:35:32;;;;;;;11.05;6.70;;;;;;;12.63;62.51;101332.78;5150774;28;20429;-45
2022/06/01 04:38:14;;;;;;;7.97;6.03;;;;;;;12.84;62.52;101351.03;5152104;28;20697;-46
2022/06/01 04:40:51;;;;;;;7.35;5.90;;;;;;;12.90;62.50;101345.94;5155335;28;20428;-44
2022/06/01 04:43:24;;;;;;;6.25;5.65;;;;;;;12.96;62.66;101347.16;5150064;28;20430;-43
2022/06/01 04:45:58;;;;;;;12.07;6.18;;;;;;;13.03;62.61;101350.03;5150907;28;20413;-44
2022/06/01 04:48:32;;;;;;;7.13;5.97;;;;;;;13.10;62.42;101351.06;5147467;28;20423;-45
2022/06/01 04:51:05;;;;;;;8.52;5.22;;;;;;;13.12;62.43;101338.50;5160122;28;20476;-49
2022/06/01 04:53:37;;;;;;;8.70;6.28;;;;;;;13.26;62.39;101351.25;5146927;28;20715;-44
2022/06/01 04:56:11;;;;;;;6.47;5.88;;;;;;;13.29;62.29;101342.16;5150365;28;20473;-42
2022/06/01 04:58:43;;;;;;;7.13;6.00;;;;;;;13.29;62.36;101356.25;5150710;28;20910;-45
2022/06/01 05:01:15;;;;;;;8.45;6.05;;;;;;;13.40;62.20;101341.06;5146958;28;21039;-45
2022/06/01 05:03:49;;;;;;;7.40;6.05;;;;;;;13.40;62.07;101341.06;5149522;28;20430;-43
2022/06/01 05:06:22;;;;;;;10.75;6.32;;;;;;;13.26;62.16;101327.38;5152027;28;20506;-44
2022/06/01 05:08:54;;;;;;;15.90;7.28;;;;;;;13.60;61.86;101353.13;5151167;28;20906;-45
2022/06/01 05:11:27;;;;;;;10.45;6.82;;;;;;;14.60;61.06;101351.53;5153659;28;20896;-45
2022/06/01 05:14:00;;;;;;;6.88;5.78;;;;;;;16.21;59.64;101341.00;5151488;28;20552;-46
2022/06/01 05:16:32;;;;;;;8.40;4.80;;;;;;;17.81;58.11;101349.88;5150166;28;20760;-46
2022/06/01 05:19:06;;;;;;;7.00;4.07;;;;;;;19.33;56.96;101340.00;5156053;28;20416;-49
2022/06/01 05:21:39;;;;;;;8.63;3.67;;;;;;;20.85;55.66;101339.00;5163743;28;20511;-46
2022/06/01 05:24:11;;;;;;;5.82;3.35;;;;;;;22.08;54.31;101345.44;5164802;28;20424;-48
2022/06/01 05:26:43;;;;;;;9.65;3.30;;;;;;;23.18;52.60;101349.72;5155436;28;20543;-51
2022/06/01 05:29:16;;;;;;;7.00;3.13;;;;;;;24.14;51.11;101338.34;5142370;28;20440;-50
2022/06/01 05:31:51;;;;;;;3.90;2.73;;;;;;;25.02;49.62;101338.72;5155753;28;20442;-48
2022/06/01 05:34:27;;;;;;;6.68;3.00;;;;;;;25.81;48.24;101346.47;5150452;28;20511;-50
2022/06/01 05:37:00;;;;;;;2.67;2.10;;;;;;;26.49;46.98;101359.22;5147265;28;20509;-48
2022/06/01 05:39:32;;;;;;;6.28;2.55;;;;;;;27.15;45.65;101356.00;5152184;28;20422;-51
2022/06/01 05:42:05;;;;;;;6.32;2.40;;;;;;;27.85;44.56;101354.59;5147228;28;20505;-49
2022/06/01 05:44:38;;;;;;;4.40;2.55;;;;;;;28.50;43.31;101357.22;5156772;28;20440;-52
2022/06/01 05:47:11;;;;;;;6.65;2.88;;;;;;;29.19;42.13;101358.38;5160626;28;20443;-52
2022/06/01 05:49:45;;;;;;;6.53;2.30;;;;;;;29.71;41.29;101365.78;5161535;28;20520;-51
2022/06/01 05:52:18;;;;;;;5.18;2.90;;;;;;;30.06;40.24;101361.53;5161856;28;20511;-52
2022/06/01 05:54:51;;;;;;;4.15;2.83;;;;;;;30.42;39.49;101369.84;5147893;28;20518;-52
2022/06/01 05:57:23;;;;;;;4.25;2.63;;;;;;;30.92;38.62;101373.72;5159150;28;20432;-49
2022/06/01 05:59:56;;;;;;;2.83;2.40;;;;;;;31.25;37.88;101350.50;5165305;28;20823;-49
2022/06/01 06:02:28;;;;;;;4.53;2.22;;;;;;;31.60;37.55;101368.72;5166105;28;20399;-51
2022/06/01 06:05:02;;;;;;;7.03;2.47;;;;;;;31.95;36.72;101366.16;5165872;28;20416;-52
2022/06/01 06:07:35;;;;;;;3.35;2.35;;;;;;;32.20;36.07;101363.28;5163306;28;20413;-53
2022/06/01 06:10:08;;;;;;;7.32;2.58;;;;;;;32.41;35.54;101372.16;5156681;28;20437;-54
2022/06/01 06:12:41;;;;;;;4.03;2.00;;;;;;;32.67;35.05;101364.63;5168082;28;20506;-53
2022/06/01 06:15:14;;;;;;;3.20;2.13;;;;;;;32.94;34.73;101364.13;5166840;28;20424;-51
2022/06/01 06:17:47;;;;;;;5.80;2.00;;;;;;;33.21;33.96;101380.03;5165714;28;20503;-53
2022/06/01 06:20:21;;;;;;;4.15;2.33;;;;;;;33.49;33.59;101378.38;5159637;28;20420;-52
2022/06/01 06:22:53;;;;;;;4.63;2.20;;;;;;;33.79;33.07;101379.16;5167152;28;20871;-49
2022/06/01 06:25:25;;;;;;;6.88;1.92;;;;;;;34.08;32.63;101381.00;5156802;28;20516;-52
2022/06/01 06:27:58;;;;;;;3.85;2.00;;;;;;;34.29;32.47;101374.13;5153176;28;20774;-51
2022/06/01 06:30:30;;;;;;;3.90;1.80;;;;;;;34.58;32.11;101382.19;5159749;28;20508;-51
2022/06/01 06:33:03;;;;;;;5.93;1.50;;;;;;;34.76;31.67;101391.53;5159265;28;20404;-44
2022/06/01 06:35:37;;;;;;;2.60;1.52;;;;;;;34.69;31.60;101388.34;5160579;28;20491;-51
2022/06/01 06:38:10;;;;;;;3.72;1.58;;;;;;;33.91;31.76;101376.81;5162657;28;20507;-50
2022/06/01 06:40:43;;;;;;;5.18;1.92;;;;;;;32.60;32.57;101389.56;5155481;28;20418;-50
2022/06/01 06:43:15;;;;;;;5.43;2.20;;;;;;;31.34;33.24;101391.69;5154086;28;20434;-47
2022/06/01 06:45:50;;;;;;;3.55;2.13;;;;;;;30.11;33.66;101391.53;5154395;28;20417;-49
2022/06/01 06:48:25;;;;;;;4.93;2.30;;;;;;;28.95;34.29;101379.63;5159545;28;20425;-52
2022/06/01 06:50:59;;;;;;;5.70;2.20;;;;;;;28.08;34.57;101400.47;5147963;28;20835;-48
2022/06/01 06:53:31;;;;;;;4.10;2.25;;;;;;;27.17;35.24;101398.09;5154302;28;20426;-47
2022/06/01 06:56:05;;;;;;;3.08;2.30;;;;;;;26.13;35.78;101371.22;5151584;28;20493;-43
2022/06/01 06:58:37;;;;;;;3.10;2.20;;;;;;;25.61;36.10;101409.91;5140938;28;20442;-50
2022/06/01 07:01:10;;;;;;;4.13;2.60;;;;;;;24.96;36.64;101413.44;5153598;28;20834;-51
2022/06/01 07:03:42;;;;;;;4.28;2.72;;;;;;;24.38;37.02;101409.44;5155613;28;20511;-50
2022/06/01 07:06:18;;;;;;;5.13;2.72;;;;;;;24.33;37.51;101409.28;5143275;28;20426;-49
2022/06/01 07:08:56;;;;;;;4.72;2.38;;;;;;;25.34;37.31;101411.44;5158217;28;20422;-47
2022/06/01 07:11:32;;;;;;;4.40;2.33;;;;;;;26.56;36.35;101402.41;5144566;28;20792;-50
2022/06/01 07:14:04;;;;;;;4.40;1.95;;;;;;;27.79;35.52;101416.94;5148146;28;20781;-46
2022/06/01 07:16:37;;;;;;;3.42;1.80;;;;;;;28.54;34.87;101384.72;5156960;28;20434;-53
2022/06/01 07:19:10;;;;;;;3.55;1.65;;;;;;;29.49;34.27;101414.06;5151474;28;20838;-50
2022/06/01 07:21:43;;;;;;;3.63;1.98;;;;;;;30.10;33.87;101419.84;5155290;28;20417;-53
2022/06/01 07:24:16;;;;;;;1.90;1.17;;;;;;;30.49;33.58;101411.28;5153472;28;20516;-52
2022/06/01 07:26:50;;;;;;;1.52;0.73;;;;;;;30.61;33.51;101416.47;5154977;28;20418;-49
2022/06/01 07:29:22;;;;;;;1.95;0.77;;;;;;;30.43;33.45;101425.97;5150911;28;20493;-47
2022/06/01 07:31:55;;;;;;;2.45;1.23;;;;;;;29.95;33.85;101428.78;5161347;28;20405;-48
2022/06/01 07:34:27;;;;;;;1.52;1.00;;;;;;;29.97;33.92;101429.31;5169449;28;20421;-51
2022/06/01 07:43:05;;;;;;;4.10;1.27;;;;;;;30.20;33.73;101433.56;5150816;28;20413;-47
2022/06/01 07:45:35;;;;;;;6.95;0.90;;;;;;;30.49;33.51;101433.91;5157186;28;20898;-48
2022/06/01 07:48:09;;;;;;;3.73;0.80;;;;;;;30.18;33.66;101413.88;5165378;28;20421;-49
2022/06/01 07:50:42;;;;;;;2.65;0.70;;;;;;;30.15;33.77;101421.78;5164915;28;20469;-49
2022/06/01 07:53:18;;;;;;;1.30;0.70;;;;;;;30.08;33.72;101441.09;5158642;28;20440;-48
2022/06/01 07:55:50;;;;;;;3.03;0.68;;;;;;;29.82;33.84;101438.25;5163572;28;20444;-51
2022/06/01 07:58:23;;;;;;;2.03;0.57;;;;;;;29.63;33.98;101421.50;5147811;28;21243;-52
2022/06/01 08:00:55;;;;;;;2.28;0.60;;;;;;;29.80;34.10;101445.84;5156712;28;20421;-51
2022/06/01 08:03:28;;;;;;;1.83;0.40;;;;;;;29.83;33.95;101423.56;5157659;28;20420;-50
2022/06/01 08:06:02;;;;;;;1.23;0.63;;;;;;;29.83;33.85;101450.78;5165143;28;20424;-51
2022/06/01 08:08:36;;;;;;;2.83;0.77;;;;;;;29.30;33.89;101430.81;5164057;28;20805;-47
2022/06/01 08:11:09;;;;;;;1.85;0.60;;;;;;;28.80;34.02;101447.47;5166137;28;20413;-46
2022/06/01 08:13:41;;;;;;;2.03;0.68;;;;;;;28.21;34.25;101445.41;5168719;28;20498;-49
2022/06/01 08:16:14;;;;;;;1.75;0.60;;;;;;;27.83;34.64;101451.72;5165851;28;20785;-47
2022/06/01 08:18:46;;;;;;;2.20;0.90;;;;;;;27.77;34.71;101456.22;5166687;28;20473;-48
2022/06/01 08:21:19;;;;;;;1.00;0.50;;;;;;;27.71;34.62;101451.78;5155141;28;20420;-49
2022/06/01 08:23:52;;;;;;;2.72;0.60;;;;;;;27.40;34.77;101456.75;5166196;28;20420;-50
2022/06/01 08:26:25;;;;;;;0.68;0.60;;;;;;;27.08;34.67;101465.41;5168655;28;20411;-49
2022/06/01 08:28:57;;;;;;;2.20;0.70;;;;;;;26.98;34.79;101457.13;5164357;28;20491;-50
2022/06/01 08:31:31;;;;;;;3.10;0.65;;;;;;;26.97;34.70;101446.50;5164949;28;20496;-46
2022/06/01 08:34:05;;;;;;;1.73;0.73;;;;;;;27.05;34.33;101441.50;5162738;28;20499;-47
2022/06/01 08:36:39;;;;;;;1.48;0.60;;;;;;;27.00;34.32;101451.44;5155176;28;20419;-49
2022/06/01 08:39:12;;;;;;;2.92;0.75;;;;;;;26.31;34.37;101372.94;5161762;28;20571;-48
2022/06/01 08:41:45;;;;;;;2.60;0.80;;;;;;;26.71;34.45;101456.06;5162070;28;20421;-47
2022/06/01 08:44:26;;;;;;;1.65;0.80;;;;;;;26.59;34.30;101456.94;5166938;28;20423;-50
2022/06/01 08:47:04;;;;;;;1.38;0.50;;;;;;;26.43;34.49;101441.41;5161148;28;20509;-47
2022/06/01 08:49:39;;;;;;;2.13;0.70;;;;;;;26.50;34.37;101463.78;5143680;28;20466;-48
2022/06/01 08:52:12;;;;;;;3.00;1.10;;;;;;;26.28;34.32;101465.47;5156881;28;20421;-49
2022/06/01 08:54:46;;;;;;;2.20;1.05;;;;;;;26.04;34.55;101470.94;5163983;28;20847;-46
2022/06/01 08:57:26;;;;;;;2.15;1.20;;;;;;;25.81;34.55;101460.97;5163377;28;20420;-52
2022/06/01 09:00:08;;;;;;;2.20;1.10;;;;;;;25.74;34.65;101455.66;5153967;28;20452;-49
2022/06/01 09:02:55;;;;;;;1.53;0.97;;;;;;;25.91;34.21;101461.19;5163810;28;20583;-49
2022/06/01 09:05:41;;;;;;;1.13;1.02;;;;;;;25.83;34.29;101458.84;5167421;28;20404;-48
2022/06/01 09:08:35;;;;;;;1.80;0.70;;;;;;;25.66;34.27;101453.28;5163595;28;20483;-50
2022/06/01 09:11:11;;;;;;;2.78;1.05;;;;;;;25.49;34.51;101468.56;5160839;28;20483;-47
2022/06/01 09:13:57;;;;;;;2.88;1.10;;;;;;;25.33;34.58;101469.25;5165295;28;20773;-46
2022/06/01 09:16:34;;;;;;;2.15;0.95;;;;;;;25.23;34.63;101462.53;5163918;28;20917;-46
2022/06/01 09:19:14;;;;;;;3.00;1.50;;;;;;;25.27;34.48;101461.03;5162300;28;20439;-46
2022/06/01 09:24:50;;;;;;;2.83;1.40;;;;;;;25.31;34.54;101466.78;5155152;28;20911;-49
2022/06/01 09:27:39;;;;;;;2.85;0.80;;;;;;;24.96;34.64;101474.75;5160616;28;20438;-46
2022/06/01 09:30:28;;;;;;;2.20;0.68;;;;;;;24.92;34.66;101468.16;5162199;28;20430;-48
2022/06/01 09:33:15;;;;;;;3.17;0.93;;;;;;;24.94;34.43;101476.88;5161634;28;20413;-47
2022/06/01 09:36:04;;;;;;;2.95;1.00;;;;;;;25.02;34.27;101479.25;5155949;28;20414;-48
2022/06/01 09:38:42;;;;;;;1.33;0.82;;;;;;;25.08;34.22;101483.72;5160738;28;20504;-45
2022/06/01 09:41:30;;;;;;;2.20;1.02;;;;;;;25.10;34.16;101481.63;5161315;28;20549;-47
2022/06/01 09:44:06;;;;;;;1.60;0.93;;;;;;;24.71;34.26;101435.19;5160566;28;20412;-46
2022/06/01 09:46:53;;;;;;;1.95;1.00;;;;;;;25.17;34.10;101498.59;5151433;28;20411;-45
2022/06/01 09:49:29;;;;;;;2.63;1.02;;;;;;;25.14;34.11;101499.06;5155437;28;20436;-46
2022/06/01 09:52:10;;;;;;;5.68;1.38;;;;;;;24.79;34.43;101485.38;5152057;28;20416;-46
2022/06/01 09:54:46;;;;;;;3.05;1.23;;;;;;;24.65;34.89;101506.34;5156296;28;20417;-46
2022/06/01 09:57:28;;;;;;;2.00;1.30;;;;;;;24.51;35.03;101494.06;5154444;28;20525;-49
2022/06/01 10:06:25;;;;;;;3.95;1.55;;;;;;;24.95;34.95;101502.84;5152955;28;20538;-46
2022/06/01 10:09:03;;;;;;;5.67;1.67;;;;;;;25.01;34.87;101496.53;5153860;28;20789;-49
2022/06/01 10:11:40;;;;;;;4.50;1.60;;;;;;;25.01;34.81;101491.13;5140789;28;20634;-48
2022/06/01 10:14:21;;;;;;;2.00;0.98;;;;;;;25.01;34.72;101483.00;5154537;28;20428;-45
2022/06/01 10:17:16;;;;;;;1.50;1.20;;;;;;;25.14;34.51;101488.25;5154029;28;20517;-48
2022/06/01 10:19:55;;;;;;;2.10;1.03;;;;;;;25.14;34.51;101499.06;5153422;28;20464;-48
2022/06/01 10:22:37;;;;;;;2.70;1.10;;;;;;;24.99;34.62;101480.53;5157753;28;20450;-51
2022/06/01 10:25:16;;;;;;;3.10;1.23;;;;;;;25.02;34.58;101499.00;5162689;28;20411;-46
2022/06/01 10:27:58;;;;;;;5.13;1.80;;;;;;;25.05;34.53;101497.69;5156952;28;20433;-46
2022/06/01 10:30:37;;;;;;;3.13;1.42;;;;;;;25.03;34.47;101502.53;5160394;28;20933;-49
2022/06/01 10:33:19;;;;;;;2.45;1.33;;;;;;;24.68;34.74;101511.28;5154361;28;20440;-45
2022/06/01 10:35:57;;;;;;;2.28;1.45;;;;;;;24.49;34.94;101512.34;5141965;28;20502;-50
2022/06/01 10:38:37;;;;;;;1.60;1.00;;;;;;;24.48;34.98;101516.13;5153631;28;20417;-53
2022/06/01 10:41:20;;;;;;;1.48;1.30;;;;;;;24.18;35.00;101484.44;5146478;28;20451;-47
2022/06/01 10:43:59;;;;;;;2.30;1.45;;;;;;;24.43;34.78;101514.09;5155289;28;20442;-48
2022/06/01 10:46:47;;;;;;;2.88;1.48;;;;;;;24.41;34.93;101523.44;5153409;28;20508;-47
2022/06/01 10:49:36;;;;;;;2.72;1.67;;;;;;;24.26;35.15;101532.72;5153244;28;20454;-45
2022/06/01 10:52:29;;;;;;;3.95;1.30;;;;;;;24.10;35.30;101541.41;5149578;28;20788;-47
2022/06/01 10:55:16;;;;;;;2.78;1.20;;;;;;;23.80;35.43;101509.72;5155530;28;20789;-46
2022/06/01 10:57:50;;;;;;;2.33;1.30;;;;;;;23.88;35.36;101539.13;5153911;28;20432;-46
2022/06/01 11:00:27;;;;;;;3.17;1.60;;;;;;;23.74;35.56;101542.97;5155252;28;20431;-49
2022/06/01 11:03:31;;;;;;;2.70;1.77;;;;;;;23.60;35.65;101549.47;5154063;28;20421;-49
2022/06/01 11:06:21;;;;;;;3.08;2.00;;;;;;;23.53;35.92;101548.69;5149844;28;20412;-45
2022/06/01 11:09:02;;;;;;;2.85;1.90;;;;;;;;;;5151593;28;20436;-44
2022/06/01 11:11:43;;;;;;;4.83;2.43;;;;;;;23.37;36.30;101558.97;5146545;28;20556;-50
2022/06/01 11:14:37;;;;;;;6.43;2.53;;;;;;;23.23;36.43;101558.22;5151182;28;20459;-47
2022/06/01 11:17:22;;;;;;;3.17;2.35;;;;;;;23.11;36.73;101554.56;5143334;28;20496;-49
2022/06/01 11:20:16;;;;;;;6.25;2.30;;;;;;;23.08;37.01;101554.19;5153979;28;20479;-48
2022/06/01 11:23:22;;;;;;;4.25;2.38;;;;;;;23.01;37.02;101554.22;5154514;28;20448;-45
2022/06/01 11:26:05;;;;;;;5.70;2.20;;;;;;;23.01;37.06;101549.66;5154144;28;20581;-49
2022/06/01 11:29:14;;;;;;;3.30;2.07;;;;;;;22.96;37.40;101514.44;5151449;28;20495;-49
2022/06/01 11:31:52;;;;;;;2.60;2.22;;;;;;;23.30;36.98;101546.59;5134557;28;20966;-51
2022/06/01 11:34:52;;;;;;;2.72;1.75;;;;;;;23.32;37.04;101560.66;5133929;28;20452;-46
2022/06/01 11:37:34;;;;;;;4.57;2.08;;;;;;;23.29;36.72;101544.91;5134459;28;20453;-48
2022/06/01 11:40:12;;;;;;;6.93;2.90;;;;;;;23.25;36.87;101545.34;5112346;28;20460;-49
2022/06/01 11:42:50;;;;;;;4.50;2.53;;;;;;;23.16;37.01;101552.03;5126888;28;20930;-47
2022/06/01 11:45:33;;;;;;;7.90;2.70;;;;;;;23.05;37.21;101554.59;5136387;28;20430;-52
2022/06/01 11:48:09;;;;;;;4.22;2.40;;;;;;;22.71;37.24;101532.34;5132664;28;20434;-50
2022/06/01 11:51:03;;;;;;;4.80;2.40;;;;;;;22.78;37.51;101560.88;5138308;28;20550;-51
2022/06/01 11:53:43;;;;;;;4.23;2.53;;;;;;;22.82;37.43;101566.66;5132838;28;20586;-47
2022/06/01 11:56:26;;;;;;;4.10;2.60;;;;;;;22.57;37.72;101580.00;5135338;28;20615;-47
2022/06/01 11:59:23;;;;;;;4.55;2.80;;;;;;;22.30;38.16;101584.66;5136528;28;20513;-44
2022/06/01 12:02:18;;;;;;;5.05;3.67;;;;;;;22.14;38.36;101579.63;5134836;28;20434;-44
2022/06/01 12:04:58;;;;;;;4.70;3.07;;;;;;;22.00;38.56;101579.66;5130410;28;20496;-46
2022/06/01 12:07:36;;;;;;;5.57;3.03;;;;;;;21.84;38.79;101570.16;5129675;28;20517;-45
2022/06/01 12:10:23;;;;;;;8.80;4.10;;;;;;;21.81;38.82;101583.19;5123331;28;20565;-48
2022/06/01 12:13:06;;;;;;;6.07;3.13;;;;;;;21.30;38.96;101540.69;5123581;28;20482;-47
2022/06/01 12:16:04;;;;;;;5.07;3.05;;;;;;;21.64;39.08;101593.47;5105795;28;21088;-45
2022/06/01 12:18:37;;;;;;;5.43;3.75;;;;;;;21.58;39.34;101586.25;5134261;28;20478;-47
2022/06/01 12:21:36;;;;;;;6.20;4.22;;;;;;;21.61;39.45;101581.28;5134923;28;20520;-45
2022/06/01 12:30:20;;;;;;;5.95;3.22;;;;;;;21.75;39.26;101578.63;5132616;28;20428;-43
2022/06/01 12:33:12;;;;;;;4.68;2.85;;;;;;;21.71;39.17;101577.34;5146731;28;21367;-45
2022/06/01 12:35:49;;;;;;;3.33;2.20;;;;;;;21.89;39.25;101585.66;5131633;28;20424;-47